sensor_id;sensor_type;location;lat;lon;timestamp;temperature;humidity
19522;DHT22;9905;52.126;5.596;2023-12-07T00:00:33;0.70;99.90
19522;DHT22;9905;52.126;5.596;2023-12-07T00:03:00;0.60;99.90
19522;DHT22;9905;52.126;5.596;2023-12-07T00:05:27;0.60;99.90
19522;DHT22;9905;52.126;5.596;2023-12-07T00:07:54;0.60;99.90
19522;DHT22;9905;52.126;5.596;2023-12-07T00:10:22;0.60;99.90
19522;DHT22;9905;52.126;5.596;2023-12-07T00:12:48;0.60;99.90
19522;DHT22;9905;52.126;5.596;2023-12-07T00:15:15;0.60;99.90
19522;DHT22;9905;52.126;5.596;2023-12-07T00:17:42;0.60;99.90
19522;DHT22;9905;52.126;5.596;2023-12-07T00:20:10;0.70;99.90
19522;DHT22;9905;52.126;5.596;2023-12-07T00:22:36;0.60;99.90
19522;DHT22;9905;52.126;5.596;2023-12-07T00:25:04;0.60;99.90
19522;DHT22;9905;52.126;5.596;2023-12-07T00:27:33;0.60;99.90
19522;DHT22;9905;52.126;5.596;2023-12-07T00:29:59;0.60;99.90
19522;DHT22;9905;52.126;5.596;2023-12-07T00:32:26;0.60;99.90
19522;DHT22;9905;52.126;5.596;2023-12-07T00:34:53;0.60;99.90
19522;DHT22;9905;52.126;5.596;2023-12-07T00:37:20;0.60;99.90
19522;DHT22;9905;52.126;5.596;2023-12-07T00:39:47;0.60;99.90
19522;DHT22;9905;52.126;5.596;2023-12-07T00:42:13;0.50;99.90
19522;DHT22;9905;52.126;5.596;2023-12-07T00:44:42;0.50;99.90
19522;DHT22;9905;52.126;5.596;2023-12-07T00:47:09;0.40;99.90
19522;DHT22;9905;52.126;5.596;2023-12-07T00:49:37;0.40;99.90
19522;DHT22;9905;52.126;5.596;2023-12-07T00:52:05;0.40;99.90
19522;DHT22;9905;52.126;5.596;2023-12-07T00:54:31;0.40;99.90
19522;DHT22;9905;52.126;5.596;2023-12-07T00:56:58;0.30;99.90
19522;DHT22;9905;52.126;5.596;2023-12-07T00:59:25;0.30;99.90
19522;DHT22;9905;52.126;5.596;2023-12-07T01:01:53;0.30;99.90
19522;DHT22;9905;52.126;5.596;2023-12-07T01:04:20;0.30;99.90
19522;DHT22;9905;52.126;5.596;2023-12-07T01:06:46;0.20;99.90
19522;DHT22;9905;52.126;5.596;2023-12-07T01:09:13;0.20;99.90
19522;DHT22;9905;52.126;5.596;2023-12-07T01:11:40;0.20;99.90
19522;DHT22;9905;52.126;5.596;2023-12-07T01:14:07;0.10;99.90
19522;DHT22;9905;52.126;5.596;2023-12-07T01:16:33;0.10;99.90
19522;DHT22;9905;52.126;5.596;2023-12-07T01:19:01;0.10;99.90
19522;DHT22;9905;52.126;5.596;2023-12-07T01:21:28;0.10;99.90
19522;DHT22;9905;52.126;5.596;2023-12-07T01:23:55;0.00;99.90
19522;DHT22;9905;52.126;5.596;2023-12-07T01:26:21;0.00;99.90
19522;DHT22;9905;52.126;5.596;2023-12-07T01:28:48;0.00;99.90
19522;DHT22;9905;52.126;5.596;2023-12-07T01:31:15;0.00;99.90
19522;DHT22;9905;52.126;5.596;2023-12-07T01:33:42;0.00;99.90
19522;DHT22;9905;52.126;5.596;2023-12-07T01:36:10;0.00;99.90
19522;DHT22;9905;52.126;5.596;2023-12-07T01:38:37;-0.10;99.90
19522;DHT22;9905;52.126;5.596;2023-12-07T01:41:04;-0.10;99.90
19522;DHT22;9905;52.126;5.596;2023-12-07T01:43:31;-0.10;99.90
19522;DHT22;9905;52.126;5.596;2023-12-07T01:45:58;-0.10;99.90
19522;DHT22;9905;52.126;5.596;2023-12-07T01:48:26;-0.20;99.90
19522;DHT22;9905;52.126;5.596;2023-12-07T01:50:54;-0.10;99.90
19522;DHT22;9905;52.126;5.596;2023-12-07T01:53:23;-0.20;99.90
19522;DHT22;9905;52.126;5.596;2023-12-07T01:55:51;-0.20;99.90
19522;DHT22;9905;52.126;5.596;2023-12-07T01:58:19;-0.20;99.90
19522;DHT22;9905;52.126;5.596;2023-12-07T02:00:47;-0.20;99.90
19522;DHT22;9905;52.126;5.596;2023-12-07T02:03:14;-0.20;99.90
19522;DHT22;9905;52.126;5.596;2023-12-07T02:05:43;-0.30;99.90
19522;DHT22;9905;52.126;5.596;2023-12-07T02:08:09;-0.30;99.90
19522;DHT22;9905;52.126;5.596;2023-12-07T02:10:37;-0.30;99.90
19522;DHT22;9905;52.126;5.596;2023-12-07T02:13:05;-0.30;99.90
19522;DHT22;9905;52.126;5.596;2023-12-07T02:15:32;-0.30;99.90
19522;DHT22;9905;52.126;5.596;2023-12-07T02:18:04;-0.30;99.90
19522;DHT22;9905;52.126;5.596;2023-12-07T02:20:39;-0.30;99.90
19522;DHT22;9905;52.126;5.596;2023-12-07T02:23:07;-0.40;99.90
19522;DHT22;9905;52.126;5.596;2023-12-07T02:25:40;-0.40;99.90
19522;DHT22;9905;52.126;5.596;2023-12-07T02:28:09;-0.40;99.90
19522;DHT22;9905;52.126;5.596;2023-12-07T02:30:35;-0.40;99.90
19522;DHT22;9905;52.126;5.596;2023-12-07T02:33:02;-0.40;99.90
19522;DHT22;9905;52.126;5.596;2023-12-07T02:35:31;-0.40;99.90
19522;DHT22;9905;52.126;5.596;2023-12-07T02:37:58;-0.40;99.90
19522;DHT22;9905;52.126;5.596;2023-12-07T02:40:27;-0.40;99.90
19522;DHT22;9905;52.126;5.596;2023-12-07T02:42:55;-0.40;99.90
19522;DHT22;9905;52.126;5.596;2023-12-07T02:45:24;-0.40;99.90
19522;DHT22;9905;52.126;5.596;2023-12-07T02:47:51;-0.40;99.90
19522;DHT22;9905;52.126;5.596;2023-12-07T02:50:18;-0.40;99.90
19522;DHT22;9905;52.126;5.596;2023-12-07T02:52:45;-0.40;99.90
19522;DHT22;9905;52.126;5.596;2023-12-07T02:55:12;-0.40;99.90
19522;DHT22;9905;52.126;5.596;2023-12-07T02:57:39;-0.50;99.90
19522;DHT22;9905;52.126;5.596;2023-12-07T03:00:06;-0.40;99.90
19522;DHT22;9905;52.126;5.596;2023-12-07T03:02:35;-0.50;99.90
19522;DHT22;9905;52.126;5.596;2023-12-07T03:05:03;-0.50;99.90
19522;DHT22;9905;52.126;5.596;2023-12-07T03:07:30;-0.50;99.90
19522;DHT22;9905;52.126;5.596;2023-12-07T03:09:57;-0.40;99.90
19522;DHT22;9905;52.126;5.596;2023-12-07T03:12:23;-0.40;99.90
19522;DHT22;9905;52.126;5.596;2023-12-07T03:14:50;-0.30;99.90
19522;DHT22;9905;52.126;5.596;2023-12-07T03:17:17;-0.30;99.90
19522;DHT22;9905;52.126;5.596;2023-12-07T03:19:45;-0.30;99.90
19522;DHT22;9905;52.126;5.596;2023-12-07T03:22:12;-0.20;99.90
19522;DHT22;9905;52.126;5.596;2023-12-07T03:24:39;-0.10;99.90
19522;DHT22;9905;52.126;5.596;2023-12-07T03:27:06;-0.10;99.90
19522;DHT22;9905;52.126;5.596;2023-12-07T03:29:33;-0.10;99.90
19522;DHT22;9905;52.126;5.596;2023-12-07T03:32:00;-0.10;99.90
19522;DHT22;9905;52.126;5.596;2023-12-07T03:34:26;-0.10;99.90
19522;DHT22;9905;52.126;5.596;2023-12-07T03:36:54;-0.20;99.90
19522;DHT22;9905;52.126;5.596;2023-12-07T03:39:21;-0.20;99.90
19522;DHT22;9905;52.126;5.596;2023-12-07T03:41:50;-0.20;99.90
19522;DHT22;9905;52.126;5.596;2023-12-07T03:44:17;-0.10;99.90
19522;DHT22;9905;52.126;5.596;2023-12-07T03:46:43;-0.20;99.90
19522;DHT22;9905;52.126;5.596;2023-12-07T03:49:10;-0.20;99.90
19522;DHT22;9905;52.126;5.596;2023-12-07T03:51:38;-0.20;99.90
19522;DHT22;9905;52.126;5.596;2023-12-07T03:54:06;-0.20;99.90
19522;DHT22;9905;52.126;5.596;2023-12-07T03:56:33;-0.10;99.90
19522;DHT22;9905;52.126;5.596;2023-12-07T03:59:00;-0.10;99.90
19522;DHT22;9905;52.126;5.596;2023-12-07T04:01:27;-0.20;99.90
19522;DHT22;9905;52.126;5.596;2023-12-07T04:03:56;-0.20;99.90
19522;DHT22;9905;52.126;5.596;2023-12-07T04:06:23;-0.20;99.90
19522;DHT22;9905;52.126;5.596;2023-12-07T04:08:51;-0.20;99.90
19522;DHT22;9905;52.126;5.596;2023-12-07T04:11:19;-0.20;99.90
19522;DHT22;9905;52.126;5.596;2023-12-07T04:13:46;-0.20;99.90
19522;DHT22;9905;52.126;5.596;2023-12-07T04:16:13;-0.30;99.90
19522;DHT22;9905;52.126;5.596;2023-12-07T04:18:40;-0.30;99.90
19522;DHT22;9905;52.126;5.596;2023-12-07T04:21:07;-0.30;99.90
19522;DHT22;9905;52.126;5.596;2023-12-07T04:23:34;-0.30;99.90
19522;DHT22;9905;52.126;5.596;2023-12-07T04:26:00;-0.30;99.90
19522;DHT22;9905;52.126;5.596;2023-12-07T04:28:28;-0.30;99.90
19522;DHT22;9905;52.126;5.596;2023-12-07T04:30:55;-0.30;99.90
19522;DHT22;9905;52.126;5.596;2023-12-07T04:33:22;-0.40;99.90
19522;DHT22;9905;52.126;5.596;2023-12-07T04:35:49;-0.40;99.90
19522;DHT22;9905;52.126;5.596;2023-12-07T04:38:16;-0.40;99.90
19522;DHT22;9905;52.126;5.596;2023-12-07T04:40:42;-0.30;99.90
19522;DHT22;9905;52.126;5.596;2023-12-07T04:43:09;-0.30;99.90
19522;DHT22;9905;52.126;5.596;2023-12-07T04:45:37;-0.30;99.90
19522;DHT22;9905;52.126;5.596;2023-12-07T04:48:04;-0.40;99.90
19522;DHT22;9905;52.126;5.596;2023-12-07T04:50:31;-0.30;99.90
19522;DHT22;9905;52.126;5.596;2023-12-07T04:52:58;-0.30;99.90
19522;DHT22;9905;52.126;5.596;2023-12-07T04:55:24;-0.30;99.90
19522;DHT22;9905;52.126;5.596;2023-12-07T04:57:51;-0.30;99.90
19522;DHT22;9905;52.126;5.596;2023-12-07T05:00:18;-0.30;99.90
19522;DHT22;9905;52.126;5.596;2023-12-07T05:02:47;-0.20;99.90
19522;DHT22;9905;52.126;5.596;2023-12-07T05:05:13;-0.20;99.90
19522;DHT22;9905;52.126;5.596;2023-12-07T05:07:40;-0.10;99.90
19522;DHT22;9905;52.126;5.596;2023-12-07T05:10:08;-0.10;99.90
19522;DHT22;9905;52.126;5.596;2023-12-07T05:12:35;-0.10;99.90
19522;DHT22;9905;52.126;5.596;2023-12-07T05:15:02;-0.10;99.90
19522;DHT22;9905;52.126;5.596;2023-12-07T05:17:29;0.00;99.90
19522;DHT22;9905;52.126;5.596;2023-12-07T05:19:58;0.00;99.90
19522;DHT22;9905;52.126;5.596;2023-12-07T05:22:24;0.00;99.90
19522;DHT22;9905;52.126;5.596;2023-12-07T05:24:51;0.00;99.90
19522;DHT22;9905;52.126;5.596;2023-12-07T05:27:18;0.10;99.90
19522;DHT22;9905;52.126;5.596;2023-12-07T05:29:45;0.10;99.90
19522;DHT22;9905;52.126;5.596;2023-12-07T05:32:12;0.10;99.90
19522;DHT22;9905;52.126;5.596;2023-12-07T05:34:39;0.10;99.90
19522;DHT22;9905;52.126;5.596;2023-12-07T05:37:07;0.10;99.90
19522;DHT22;9905;52.126;5.596;2023-12-07T05:39:34;0.10;99.90
19522;DHT22;9905;52.126;5.596;2023-12-07T05:42:01;0.20;99.90
19522;DHT22;9905;52.126;5.596;2023-12-07T05:44:29;0.20;99.90
19522;DHT22;9905;52.126;5.596;2023-12-07T05:46:56;0.20;99.90
19522;DHT22;9905;52.126;5.596;2023-12-07T05:49:23;0.20;99.90
19522;DHT22;9905;52.126;5.596;2023-12-07T05:51:50;0.20;99.90
19522;DHT22;9905;52.126;5.596;2023-12-07T05:54:19;0.30;99.90
19522;DHT22;9905;52.126;5.596;2023-12-07T05:56:47;0.30;99.90
19522;DHT22;9905;52.126;5.596;2023-12-07T05:59:14;0.40;99.90
19522;DHT22;9905;52.126;5.596;2023-12-07T06:01:41;0.40;99.90
19522;DHT22;9905;52.126;5.596;2023-12-07T06:04:09;0.40;99.90
19522;DHT22;9905;52.126;5.596;2023-12-07T06:06:36;0.40;99.90
19522;DHT22;9905;52.126;5.596;2023-12-07T06:09:02;0.40;99.90
19522;DHT22;9905;52.126;5.596;2023-12-07T06:11:32;0.40;99.90
19522;DHT22;9905;52.126;5.596;2023-12-07T06:13:59;0.30;99.90
19522;DHT22;9905;52.126;5.596;2023-12-07T06:16:25;0.30;99.90
19522;DHT22;9905;52.126;5.596;2023-12-07T06:18:52;0.40;99.90
19522;DHT22;9905;52.126;5.596;2023-12-07T06:21:19;0.40;99.90
19522;DHT22;9905;52.126;5.596;2023-12-07T06:23:46;0.40;99.90
19522;DHT22;9905;52.126;5.596;2023-12-07T06:26:13;0.50;99.90
19522;DHT22;9905;52.126;5.596;2023-12-07T06:28:41;0.50;99.90
19522;DHT22;9905;52.126;5.596;2023-12-07T06:31:08;0.50;99.90
19522;DHT22;9905;52.126;5.596;2023-12-07T06:33:35;0.50;99.90
19522;DHT22;9905;52.126;5.596;2023-12-07T06:36:02;0.40;99.90
19522;DHT22;9905;52.126;5.596;2023-12-07T06:38:30;0.40;99.90
19522;DHT22;9905;52.126;5.596;2023-12-07T06:40:57;0.40;99.90
19522;DHT22;9905;52.126;5.596;2023-12-07T06:43:24;0.40;99.90
19522;DHT22;9905;52.126;5.596;2023-12-07T06:45:52;0.40;99.90
19522;DHT22;9905;52.126;5.596;2023-12-07T06:48:19;0.40;99.90
19522;DHT22;9905;52.126;5.596;2023-12-07T06:50:45;0.40;99.90
19522;DHT22;9905;52.126;5.596;2023-12-07T06:53:13;0.50;99.90
19522;DHT22;9905;52.126;5.596;2023-12-07T06:55:41;0.50;99.90
19522;DHT22;9905;52.126;5.596;2023-12-07T06:58:08;0.50;99.90
19522;DHT22;9905;52.126;5.596;2023-12-07T07:00:35;0.50;99.90
19522;DHT22;9905;52.126;5.596;2023-12-07T07:03:04;0.50;99.90
19522;DHT22;9905;52.126;5.596;2023-12-07T07:05:31;0.50;99.90
19522;DHT22;9905;52.126;5.596;2023-12-07T07:07:58;0.40;99.90
19522;DHT22;9905;52.126;5.596;2023-12-07T07:10:25;0.40;99.90
19522;DHT22;9905;52.126;5.596;2023-12-07T07:12:51;0.40;99.90
19522;DHT22;9905;52.126;5.596;2023-12-07T07:15:18;0.40;99.90
19522;DHT22;9905;52.126;5.596;2023-12-07T07:17:45;0.40;99.90
19522;DHT22;9905;52.126;5.596;2023-12-07T07:20:13;0.40;99.90
19522;DHT22;9905;52.126;5.596;2023-12-07T07:22:40;0.40;99.90
19522;DHT22;9905;52.126;5.596;2023-12-07T07:25:07;0.50;99.90
19522;DHT22;9905;52.126;5.596;2023-12-07T07:27:34;0.50;99.90
19522;DHT22;9905;52.126;5.596;2023-12-07T07:30:01;0.50;99.90
19522;DHT22;9905;52.126;5.596;2023-12-07T07:32:29;0.40;99.90
19522;DHT22;9905;52.126;5.596;2023-12-07T07:34:56;0.40;99.90
19522;DHT22;9905;52.126;5.596;2023-12-07T07:37:24;0.40;99.90
19522;DHT22;9905;52.126;5.596;2023-12-07T07:39:51;0.40;99.90
19522;DHT22;9905;52.126;5.596;2023-12-07T07:42:18;0.40;99.90
19522;DHT22;9905;52.126;5.596;2023-12-07T07:44:44;0.40;99.90
19522;DHT22;9905;52.126;5.596;2023-12-07T07:47:11;0.40;99.90
19522;DHT22;9905;52.126;5.596;2023-12-07T07:49:38;0.30;99.90
19522;DHT22;9905;52.126;5.596;2023-12-07T07:52:05;0.30;99.90
19522;DHT22;9905;52.126;5.596;2023-12-07T07:54:33;0.30;99.90
19522;DHT22;9905;52.126;5.596;2023-12-07T07:56:59;0.30;99.90
19522;DHT22;9905;52.126;5.596;2023-12-07T07:59:26;0.20;99.90
19522;DHT22;9905;52.126;5.596;2023-12-07T08:01:53;0.10;99.90
19522;DHT22;9905;52.126;5.596;2023-12-07T08:04:20;0.20;99.90
19522;DHT22;9905;52.126;5.596;2023-12-07T08:06:46;0.20;99.90
19522;DHT22;9905;52.126;5.596;2023-12-07T08:09:13;0.10;99.90
19522;DHT22;9905;52.126;5.596;2023-12-07T08:11:41;0.20;99.90
19522;DHT22;9905;52.126;5.596;2023-12-07T08:14:08;0.20;99.90
19522;DHT22;9905;52.126;5.596;2023-12-07T08:16:34;0.20;99.90
19522;DHT22;9905;52.126;5.596;2023-12-07T08:19:01;0.20;99.90
19522;DHT22;9905;52.126;5.596;2023-12-07T08:21:28;0.20;99.90
19522;DHT22;9905;52.126;5.596;2023-12-07T08:23:55;0.20;99.90
19522;DHT22;9905;52.126;5.596;2023-12-07T08:26:22;0.10;99.90
19522;DHT22;9905;52.126;5.596;2023-12-07T08:28:50;0.10;99.90
19522;DHT22;9905;52.126;5.596;2023-12-07T08:31:19;0.10;99.90
19522;DHT22;9905;52.126;5.596;2023-12-07T08:33:46;0.20;99.90
19522;DHT22;9905;52.126;5.596;2023-12-07T08:36:12;0.20;99.90
19522;DHT22;9905;52.126;5.596;2023-12-07T08:38:39;0.20;99.90
19522;DHT22;9905;52.126;5.596;2023-12-07T08:41:06;0.30;99.90
19522;DHT22;9905;52.126;5.596;2023-12-07T08:43:33;0.30;99.90
19522;DHT22;9905;52.126;5.596;2023-12-07T08:46:01;0.40;99.90
19522;DHT22;9905;52.126;5.596;2023-12-07T08:48:29;0.40;99.90
19522;DHT22;9905;52.126;5.596;2023-12-07T08:50:55;0.40;99.90
19522;DHT22;9905;52.126;5.596;2023-12-07T08:53:22;0.50;99.90
19522;DHT22;9905;52.126;5.596;2023-12-07T08:55:49;0.40;99.90
19522;DHT22;9905;52.126;5.596;2023-12-07T08:58:16;0.40;99.90
19522;DHT22;9905;52.126;5.596;2023-12-07T09:00:43;0.40;99.90
19522;DHT22;9905;52.126;5.596;2023-12-07T09:03:11;0.40;99.90
19522;DHT22;9905;52.126;5.596;2023-12-07T09:05:38;0.40;99.90
19522;DHT22;9905;52.126;5.596;2023-12-07T09:08:05;0.40;99.90
19522;DHT22;9905;52.126;5.596;2023-12-07T09:10:32;0.40;99.90
19522;DHT22;9905;52.126;5.596;2023-12-07T09:12:59;0.40;99.90
19522;DHT22;9905;52.126;5.596;2023-12-07T09:15:25;0.40;99.90
19522;DHT22;9905;52.126;5.596;2023-12-07T09:17:52;0.40;99.90
19522;DHT22;9905;52.126;5.596;2023-12-07T09:20:20;0.40;99.90
19522;DHT22;9905;52.126;5.596;2023-12-07T09:22:47;0.40;99.90
19522;DHT22;9905;52.126;5.596;2023-12-07T09:25:15;0.40;99.90
19522;DHT22;9905;52.126;5.596;2023-12-07T09:27:42;0.40;99.90
19522;DHT22;9905;52.126;5.596;2023-12-07T09:30:10;0.40;99.90
19522;DHT22;9905;52.126;5.596;2023-12-07T09:32:37;0.40;99.90
19522;DHT22;9905;52.126;5.596;2023-12-07T09:35:05;0.40;99.90
19522;DHT22;9905;52.126;5.596;2023-12-07T09:37:34;0.40;99.90
19522;DHT22;9905;52.126;5.596;2023-12-07T09:40:01;0.40;99.90
19522;DHT22;9905;52.126;5.596;2023-12-07T09:42:30;0.40;99.90
19522;DHT22;9905;52.126;5.596;2023-12-07T09:44:57;0.40;99.90
19522;DHT22;9905;52.126;5.596;2023-12-07T09:47:24;0.40;99.90
19522;DHT22;9905;52.126;5.596;2023-12-07T09:49:52;0.50;99.90
19522;DHT22;9905;52.126;5.596;2023-12-07T09:52:19;0.50;99.90
19522;DHT22;9905;52.126;5.596;2023-12-07T09:54:49;0.50;99.90
19522;DHT22;9905;52.126;5.596;2023-12-07T09:57:16;0.50;99.90
19522;DHT22;9905;52.126;5.596;2023-12-07T09:59:43;0.50;99.90
19522;DHT22;9905;52.126;5.596;2023-12-07T10:02:10;0.50;99.90
19522;DHT22;9905;52.126;5.596;2023-12-07T10:04:38;0.60;99.90
19522;DHT22;9905;52.126;5.596;2023-12-07T10:07:05;0.50;99.90
19522;DHT22;9905;52.126;5.596;2023-12-07T10:09:34;0.40;99.90
19522;DHT22;9905;52.126;5.596;2023-12-07T10:12:06;0.40;99.90
19522;DHT22;9905;52.126;5.596;2023-12-07T10:14:33;0.40;99.90
19522;DHT22;9905;52.126;5.596;2023-12-07T10:17:00;0.50;99.90
19522;DHT22;9905;52.126;5.596;2023-12-07T10:19:27;0.50;99.90
19522;DHT22;9905;52.126;5.596;2023-12-07T10:21:54;0.50;99.90
19522;DHT22;9905;52.126;5.596;2023-12-07T10:24:22;0.50;99.90
19522;DHT22;9905;52.126;5.596;2023-12-07T10:26:51;0.60;99.90
19522;DHT22;9905;52.126;5.596;2023-12-07T10:29:20;0.70;99.90
19522;DHT22;9905;52.126;5.596;2023-12-07T10:31:48;0.70;99.90
19522;DHT22;9905;52.126;5.596;2023-12-07T10:34:18;0.70;99.90
19522;DHT22;9905;52.126;5.596;2023-12-07T10:36:46;0.60;99.90
19522;DHT22;9905;52.126;5.596;2023-12-07T10:39:13;0.70;99.90
19522;DHT22;9905;52.126;5.596;2023-12-07T10:41:43;0.70;99.90
19522;DHT22;9905;52.126;5.596;2023-12-07T10:44:13;0.70;99.90
19522;DHT22;9905;52.126;5.596;2023-12-07T10:46:42;0.70;99.90
19522;DHT22;9905;52.126;5.596;2023-12-07T10:49:17;0.80;99.90
19522;DHT22;9905;52.126;5.596;2023-12-07T10:51:51;0.70;99.90
19522;DHT22;9905;52.126;5.596;2023-12-07T10:54:22;0.80;99.90
19522;DHT22;9905;52.126;5.596;2023-12-07T10:56:49;0.80;99.90
19522;DHT22;9905;52.126;5.596;2023-12-07T10:59:16;0.80;99.90
19522;DHT22;9905;52.126;5.596;2023-12-07T11:01:45;0.90;99.90
19522;DHT22;9905;52.126;5.596;2023-12-07T11:04:14;0.90;99.90
19522;DHT22;9905;52.126;5.596;2023-12-07T11:06:44;0.90;99.90
19522;DHT22;9905;52.126;5.596;2023-12-07T11:09:15;0.90;99.90
19522;DHT22;9905;52.126;5.596;2023-12-07T11:11:46;1.00;99.90
19522;DHT22;9905;52.126;5.596;2023-12-07T11:14:15;1.00;99.90
19522;DHT22;9905;52.126;5.596;2023-12-07T11:16:45;1.00;99.90
19522;DHT22;9905;52.126;5.596;2023-12-07T11:19:46;1.10;99.90
19522;DHT22;9905;52.126;5.596;2023-12-07T11:22:13;1.10;99.90
19522;DHT22;9905;52.126;5.596;2023-12-07T11:24:52;1.20;99.90
19522;DHT22;9905;52.126;5.596;2023-12-07T11:27:20;1.20;99.90
19522;DHT22;9905;52.126;5.596;2023-12-07T11:29:48;1.20;99.90
19522;DHT22;9905;52.126;5.596;2023-12-07T11:32:16;1.20;99.90
19522;DHT22;9905;52.126;5.596;2023-12-07T11:34:43;1.30;99.90
19522;DHT22;9905;52.126;5.596;2023-12-07T11:37:14;1.30;99.90
19522;DHT22;9905;52.126;5.596;2023-12-07T11:39:41;1.40;99.90
19522;DHT22;9905;52.126;5.596;2023-12-07T11:42:11;1.40;99.90
19522;DHT22;9905;52.126;5.596;2023-12-07T11:44:39;1.40;99.90
19522;DHT22;9905;52.126;5.596;2023-12-07T11:47:07;1.50;99.90
19522;DHT22;9905;52.126;5.596;2023-12-07T11:49:35;1.50;99.90
19522;DHT22;9905;52.126;5.596;2023-12-07T11:52:12;1.50;99.90
19522;DHT22;9905;52.126;5.596;2023-12-07T11:54:40;1.60;99.90
19522;DHT22;9905;52.126;5.596;2023-12-07T11:57:06;1.60;99.90
19522;DHT22;9905;52.126;5.596;2023-12-07T11:59:33;1.60;99.90
19522;DHT22;9905;52.126;5.596;2023-12-07T12:02:00;1.60;99.90
19522;DHT22;9905;52.126;5.596;2023-12-07T12:04:28;1.70;99.90
19522;DHT22;9905;52.126;5.596;2023-12-07T12:06:56;1.70;99.90
19522;DHT22;9905;52.126;5.596;2023-12-07T12:09:24;1.70;99.90
19522;DHT22;9905;52.126;5.596;2023-12-07T12:11:50;1.70;99.90
19522;DHT22;9905;52.126;5.596;2023-12-07T12:14:17;1.80;99.90
19522;DHT22;9905;52.126;5.596;2023-12-07T12:16:45;1.80;99.90
19522;DHT22;9905;52.126;5.596;2023-12-07T12:19:13;1.90;99.90
19522;DHT22;9905;52.126;5.596;2023-12-07T12:21:43;1.90;99.90
19522;DHT22;9905;52.126;5.596;2023-12-07T12:24:17;2.00;99.90
19522;DHT22;9905;52.126;5.596;2023-12-07T12:26:50;2.00;99.90
19522;DHT22;9905;52.126;5.596;2023-12-07T12:29:17;2.00;99.90
19522;DHT22;9905;52.126;5.596;2023-12-07T12:31:44;2.00;99.90
19522;DHT22;9905;52.126;5.596;2023-12-07T12:34:11;2.00;99.90
19522;DHT22;9905;52.126;5.596;2023-12-07T12:36:38;2.10;99.90
19522;DHT22;9905;52.126;5.596;2023-12-07T12:39:05;2.10;99.90
19522;DHT22;9905;52.126;5.596;2023-12-07T12:41:35;2.10;99.90
19522;DHT22;9905;52.126;5.596;2023-12-07T12:44:04;2.10;99.90
19522;DHT22;9905;52.126;5.596;2023-12-07T12:46:31;2.20;99.90
19522;DHT22;9905;52.126;5.596;2023-12-07T12:49:00;2.20;99.90
19522;DHT22;9905;52.126;5.596;2023-12-07T12:51:30;2.20;99.90
19522;DHT22;9905;52.126;5.596;2023-12-07T12:53:59;2.30;99.90
19522;DHT22;9905;52.126;5.596;2023-12-07T12:56:27;2.30;99.90
19522;DHT22;9905;52.126;5.596;2023-12-07T12:58:55;2.30;99.90
19522;DHT22;9905;52.126;5.596;2023-12-07T13:01:22;2.30;99.90
19522;DHT22;9905;52.126;5.596;2023-12-07T13:03:49;2.40;99.90
19522;DHT22;9905;52.126;5.596;2023-12-07T13:06:17;2.40;99.90
19522;DHT22;9905;52.126;5.596;2023-12-07T13:08:44;2.50;99.90
19522;DHT22;9905;52.126;5.596;2023-12-07T13:11:15;2.50;99.90
19522;DHT22;9905;52.126;5.596;2023-12-07T13:13:41;2.50;99.90
19522;DHT22;9905;52.126;5.596;2023-12-07T13:16:10;2.50;99.90
19522;DHT22;9905;52.126;5.596;2023-12-07T13:18:37;2.60;99.90
19522;DHT22;9905;52.126;5.596;2023-12-07T13:21:05;2.60;99.90
19522;DHT22;9905;52.126;5.596;2023-12-07T13:23:32;2.60;99.90
19522;DHT22;9905;52.126;5.596;2023-12-07T13:25:58;2.60;99.90
19522;DHT22;9905;52.126;5.596;2023-12-07T13:28:25;2.70;99.90
19522;DHT22;9905;52.126;5.596;2023-12-07T13:30:52;2.70;99.90
19522;DHT22;9905;52.126;5.596;2023-12-07T13:33:20;2.70;99.90
19522;DHT22;9905;52.126;5.596;2023-12-07T13:35:48;2.70;99.90
19522;DHT22;9905;52.126;5.596;2023-12-07T13:38:15;2.70;99.90
19522;DHT22;9905;52.126;5.596;2023-12-07T13:40:45;2.70;99.90
19522;DHT22;9905;52.126;5.596;2023-12-07T13:43:12;2.70;99.90
19522;DHT22;9905;52.126;5.596;2023-12-07T13:45:39;2.80;99.90
19522;DHT22;9905;52.126;5.596;2023-12-07T13:48:05;2.70;99.90
19522;DHT22;9905;52.126;5.596;2023-12-07T13:50:33;2.70;99.90
19522;DHT22;9905;52.126;5.596;2023-12-07T13:53:01;2.70;99.90
19522;DHT22;9905;52.126;5.596;2023-12-07T13:55:28;2.70;99.90
19522;DHT22;9905;52.126;5.596;2023-12-07T13:57:55;2.70;99.90
19522;DHT22;9905;52.126;5.596;2023-12-07T14:00:22;2.70;99.90
19522;DHT22;9905;52.126;5.596;2023-12-07T14:02:49;2.70;99.90
19522;DHT22;9905;52.126;5.596;2023-12-07T14:05:16;2.70;99.90
19522;DHT22;9905;52.126;5.596;2023-12-07T14:07:45;2.70;99.90
19522;DHT22;9905;52.126;5.596;2023-12-07T14:10:12;2.70;99.90
19522;DHT22;9905;52.126;5.596;2023-12-07T14:12:39;2.70;99.90
19522;DHT22;9905;52.126;5.596;2023-12-07T14:15:06;2.60;99.90
19522;DHT22;9905;52.126;5.596;2023-12-07T14:17:35;2.70;99.90
19522;DHT22;9905;52.126;5.596;2023-12-07T14:20:03;2.70;99.90
19522;DHT22;9905;52.126;5.596;2023-12-07T14:22:30;2.70;99.90
19522;DHT22;9905;52.126;5.596;2023-12-07T14:24:58;2.60;99.90
19522;DHT22;9905;52.126;5.596;2023-12-07T14:27:26;2.60;99.90
19522;DHT22;9905;52.126;5.596;2023-12-07T14:29:53;2.60;99.90
19522;DHT22;9905;52.126;5.596;2023-12-07T14:32:19;2.60;99.90
19522;DHT22;9905;52.126;5.596;2023-12-07T14:34:46;2.60;99.90
19522;DHT22;9905;52.126;5.596;2023-12-07T14:37:13;2.60;99.90
19522;DHT22;9905;52.126;5.596;2023-12-07T14:39:40;2.50;99.90
19522;DHT22;9905;52.126;5.596;2023-12-07T14:42:08;2.50;99.90
19522;DHT22;9905;52.126;5.596;2023-12-07T14:44:35;2.50;99.90
19522;DHT22;9905;52.126;5.596;2023-12-07T14:47:02;2.50;99.90
19522;DHT22;9905;52.126;5.596;2023-12-07T14:49:29;2.50;99.90
19522;DHT22;9905;52.126;5.596;2023-12-07T14:51:56;2.50;99.90
19522;DHT22;9905;52.126;5.596;2023-12-07T14:54:24;2.50;99.90
19522;DHT22;9905;52.126;5.596;2023-12-07T14:56:51;2.50;99.90
19522;DHT22;9905;52.126;5.596;2023-12-07T14:59:19;2.40;99.90
19522;DHT22;9905;52.126;5.596;2023-12-07T15:01:46;2.40;99.90
19522;DHT22;9905;52.126;5.596;2023-12-07T15:04:13;2.50;99.90
19522;DHT22;9905;52.126;5.596;2023-12-07T15:06:39;2.50;99.90
19522;DHT22;9905;52.126;5.596;2023-12-07T15:09:06;2.50;99.90
19522;DHT22;9905;52.126;5.596;2023-12-07T15:11:33;2.40;99.90
19522;DHT22;9905;52.126;5.596;2023-12-07T15:14:01;2.40;99.90
19522;DHT22;9905;52.126;5.596;2023-12-07T15:16:29;2.30;99.90
19522;DHT22;9905;52.126;5.596;2023-12-07T15:18:56;2.30;99.90
19522;DHT22;9905;52.126;5.596;2023-12-07T15:21:23;2.40;99.90
19522;DHT22;9905;52.126;5.596;2023-12-07T15:23:51;2.30;99.90
19522;DHT22;9905;52.126;5.596;2023-12-07T15:26:17;2.30;99.90
19522;DHT22;9905;52.126;5.596;2023-12-07T15:28:44;2.30;99.90
19522;DHT22;9905;52.126;5.596;2023-12-07T15:31:11;2.30;99.90
19522;DHT22;9905;52.126;5.596;2023-12-07T15:33:39;2.20;99.90
19522;DHT22;9905;52.126;5.596;2023-12-07T15:36:06;2.30;99.90
19522;DHT22;9905;52.126;5.596;2023-12-07T15:38:33;2.30;99.90
19522;DHT22;9905;52.126;5.596;2023-12-07T15:41:00;2.20;99.90
19522;DHT22;9905;52.126;5.596;2023-12-07T15:43:28;2.20;99.90
19522;DHT22;9905;52.126;5.596;2023-12-07T15:45:55;2.30;99.90
19522;DHT22;9905;52.126;5.596;2023-12-07T15:48:22;2.20;99.90
19522;DHT22;9905;52.126;5.596;2023-12-07T15:50:50;2.30;99.90
19522;DHT22;9905;52.126;5.596;2023-12-07T15:53:17;2.30;99.90
19522;DHT22;9905;52.126;5.596;2023-12-07T15:55:46;2.40;99.90
19522;DHT22;9905;52.126;5.596;2023-12-07T15:58:12;2.40;99.90